METAR Data
IDs: Format: Raw Decoded Include TAF

Data at: 0935 UTC 18 Jan 2019

PAKK 171643Z 36006KT 10SM OVC090 M04/M11 A2970 RMK FZRANO VIA PHONE